createdAt,value
2023-07-23T00:01:07.415Z,15.89
2023-07-23T00:06:10.319Z,15.88
2023-07-23T00:11:13.404Z,15.86
2023-07-23T00:16:17.815Z,15.86
2023-07-23T00:21:20.861Z,15.87
2023-07-23T00:26:23.949Z,15.91
2023-07-23T00:31:28.468Z,16.02
2023-07-23T00:36:31.926Z,16.06
2023-07-23T00:41:35.349Z,16.03
2023-07-23T00:46:40.479Z,16.10
2023-07-23T00:51:43.761Z,16.19
2023-07-23T00:56:49.082Z,16.19
2023-07-23T01:01:53.457Z,16.09
2023-07-23T01:06:59.174Z,16.22
2023-07-23T01:12:04.239Z,16.20
2023-07-23T01:17:09.837Z,16.23
2023-07-23T01:22:14.295Z,16.26
2023-07-23T01:27:17.236Z,16.22
2023-07-23T01:32:20.260Z,16.12
2023-07-23T01:37:25.521Z,16.03
2023-07-23T01:42:29.172Z,16.01
2023-07-23T01:47:32.372Z,15.92
2023-07-23T01:52:36.813Z,15.82
2023-07-23T01:57:40.091Z,15.91
2023-07-23T02:02:43.353Z,16.07
2023-07-23T02:07:48.117Z,16.13
2023-07-23T02:12:51.323Z,16.20
2023-07-23T02:17:54.482Z,16.24
2023-07-23T02:22:59.211Z,16.25
2023-07-23T02:28:03.342Z,16.33
2023-07-23T02:33:06.599Z,16.35
2023-07-23T02:38:11.016Z,16.34
2023-07-23T02:43:14.280Z,16.36
2023-07-23T02:48:17.394Z,16.38
2023-07-23T02:53:22.322Z,16.27
2023-07-23T02:58:25.316Z,16.30
2023-07-23T03:03:28.405Z,16.17
2023-07-23T03:08:35.461Z,16.31
2023-07-23T03:13:38.544Z,16.29
2023-07-23T03:18:41.744Z,16.36
2023-07-23T03:23:46.620Z,16.28
2023-07-23T03:28:49.642Z,16.33
2023-07-23T03:33:52.596Z,16.32
2023-07-23T03:38:57.253Z,16.31
2023-07-23T03:44:00.413Z,16.28
2023-07-23T03:49:03.458Z,16.27
2023-07-23T03:54:07.819Z,16.28
2023-07-23T03:59:10.847Z,16.29
2023-07-23T04:04:13.964Z,16.23
2023-07-23T04:09:18.474Z,16.20
2023-07-23T04:14:21.888Z,16.27
2023-07-23T04:19:25.312Z,16.29
2023-07-23T04:24:29.875Z,16.34
2023-07-23T04:29:33.224Z,16.34
2023-07-23T04:34:36.471Z,16.38
2023-07-23T04:39:40.882Z,16.41
2023-07-23T04:44:44.301Z,16.42
2023-07-23T04:49:47.543Z,16.30
2023-07-23T04:54:52.054Z,16.10
2023-07-23T04:59:55.010Z,16.09
2023-07-23T05:04:58.072Z,16.00
2023-07-23T05:10:02.479Z,15.99
2023-07-23T05:15:13.736Z,15.97
2023-07-23T05:20:17.224Z,15.93
2023-07-23T05:25:21.785Z,15.94
2023-07-23T05:30:24.921Z,15.93
2023-07-23T05:35:28.012Z,15.91
2023-07-23T05:40:37.270Z,15.90
2023-07-23T05:45:40.707Z,15.91
2023-07-23T05:50:43.774Z,15.78
2023-07-23T05:55:48.253Z,15.87
2023-07-23T06:00:51.354Z,15.86
2023-07-23T06:05:54.534Z,15.87
2023-07-23T06:10:58.950Z,15.86
2023-07-23T06:16:02.031Z,15.98
2023-07-23T06:21:05.594Z,15.94
2023-07-23T06:26:12.112Z,15.92
2023-07-23T06:31:15.652Z,15.81
2023-07-23T06:36:18.737Z,15.79
2023-07-23T06:41:23.135Z,15.76
2023-07-23T06:46:26.345Z,15.80
2023-07-23T06:51:29.742Z,15.81
2023-07-23T06:56:35.186Z,15.82
2023-07-23T07:01:38.328Z,15.90
2023-07-23T07:06:41.467Z,15.98
2023-07-23T07:11:45.968Z,16.07
2023-07-23T07:16:49.099Z,16.10
2023-07-23T07:21:52.273Z,16.09
2023-07-23T07:26:56.911Z,16.00
2023-07-23T07:32:00.007Z,15.91
2023-07-23T07:37:03.488Z,15.97
2023-07-23T07:42:08.738Z,16.07
2023-07-23T07:47:12.020Z,16.06
2023-07-23T07:52:15.165Z,16.21
2023-07-23T07:57:20.395Z,16.42
2023-07-23T08:02:24.279Z,16.63
2023-07-23T08:07:27.881Z,16.60
2023-07-23T08:12:33.312Z,16.58
2023-07-23T08:17:37.443Z,16.60
2023-07-23T08:22:41.504Z,16.73
2023-07-23T08:27:52.184Z,16.82
2023-07-23T08:32:56.809Z,16.97
2023-07-23T08:38:00.740Z,17.02
2023-07-23T08:43:49.540Z,17.14
2023-07-23T08:49:06.742Z,17.21
2023-07-23T08:54:12.133Z,17.34
2023-07-23T08:59:16.828Z,17.34
2023-07-23T09:04:19.869Z,17.41
2023-07-23T09:09:23.274Z,17.38
2023-07-23T09:14:27.687Z,17.47
2023-07-23T09:19:30.891Z,17.42
2023-07-23T09:24:35.340Z,17.25
2023-07-23T09:29:42.938Z,17.10
2023-07-23T09:34:48.338Z,17.05
2023-07-23T09:39:56.095Z,17.04
2023-07-23T09:45:03.438Z,17.06
2023-07-23T09:50:07.919Z,16.93
2023-07-23T09:55:13.774Z,16.85
2023-07-23T10:00:18.964Z,16.83
2023-07-23T10:05:22.192Z,16.77
2023-07-23T10:10:25.237Z,16.73
2023-07-23T10:15:31.093Z,16.79
2023-07-23T10:20:34.892Z,16.91
2023-07-23T10:25:41.359Z,17.06
2023-07-23T10:30:46.781Z,17.38
2023-07-23T10:36:00.849Z,17.75
2023-07-23T10:41:04.865Z,18.26
2023-07-23T10:46:10.556Z,18.71
2023-07-23T10:51:15.962Z,19.01
2023-07-23T10:56:28.040Z,19.16
2023-07-23T11:01:36.982Z,19.17
2023-07-23T11:06:42.723Z,19.15
2023-07-23T11:11:45.859Z,19.09
2023-07-23T11:16:52.245Z,18.98
2023-07-23T11:21:57.618Z,19.25
2023-07-23T11:27:02.761Z,19.21
2023-07-23T11:32:08.868Z,19.21
2023-07-23T11:37:12.295Z,19.98
2023-07-23T11:42:19.005Z,20.24
2023-07-23T11:47:23.395Z,20.14
2023-07-23T11:52:27.012Z,19.92
2023-07-23T11:57:30.258Z,19.92
2023-07-23T12:02:36.500Z,20.03
2023-07-23T12:07:39.630Z,20.44
2023-07-23T12:12:45.595Z,21.07
2023-07-23T12:17:52.591Z,21.39
2023-07-23T12:22:57.845Z,21.80
2023-07-23T12:28:01.637Z,22.03
2023-07-23T12:33:06.322Z,22.47
2023-07-23T12:38:09.365Z,22.41
2023-07-23T12:43:12.776Z,22.39
2023-07-23T12:48:17.262Z,22.91
2023-07-23T12:53:20.434Z,22.69
2023-07-23T12:58:23.659Z,22.45
2023-07-23T13:03:28.255Z,22.65
2023-07-23T13:08:31.436Z,22.97
2023-07-23T13:13:34.453Z,23.27
2023-07-23T13:18:38.896Z,23.75
2023-07-23T13:23:42.233Z,24.07
2023-07-23T13:28:47.986Z,23.99
2023-07-23T13:33:52.681Z,24.13
2023-07-23T13:38:55.756Z,24.18
2023-07-23T13:44:01.443Z,24.19
2023-07-23T13:49:07.262Z,24.54
2023-07-23T13:54:11.373Z,24.61
2023-07-23T13:59:14.811Z,24.42
2023-07-23T14:04:19.517Z,24.24
2023-07-23T14:09:22.998Z,24.15
2023-07-23T14:14:26.095Z,23.90
2023-07-23T14:19:30.797Z,23.87
2023-07-23T14:24:34.028Z,23.66
2023-07-23T14:29:37.546Z,23.84
2023-07-23T14:34:43.156Z,23.79
2023-07-23T14:39:46.361Z,23.81
2023-07-23T14:44:49.628Z,23.86
2023-07-23T14:49:54.062Z,23.70
2023-07-23T14:54:57.313Z,23.73
2023-07-23T15:00:00.624Z,23.61
2023-07-23T15:05:06.143Z,23.68
2023-07-23T15:10:10.200Z,23.82
2023-07-23T15:15:14.930Z,23.81
2023-07-23T15:20:19.958Z,24.11
2023-07-23T15:25:24.517Z,24.29
2023-07-23T15:30:27.705Z,24.21
2023-07-23T15:35:32.273Z,23.92
2023-07-23T15:40:35.589Z,23.79
2023-07-23T15:45:39.752Z,23.08
2023-07-23T15:50:44.224Z,23.60
2023-07-23T15:55:47.298Z,24.12
2023-07-23T16:00:50.463Z,24.61
2023-07-23T16:05:54.987Z,24.41
2023-07-23T16:10:58.143Z,24.30
2023-07-23T16:16:01.552Z,24.25
2023-07-23T16:21:06.003Z,24.19
2023-07-23T16:26:10.078Z,23.84
2023-07-23T16:31:13.396Z,23.77
2023-07-23T16:36:19.567Z,23.61
2023-07-23T16:41:22.779Z,23.48
2023-07-23T16:46:25.988Z,23.46
2023-07-23T16:51:31.527Z,23.26
2023-07-23T16:56:34.880Z,23.26
2023-07-23T17:01:38.140Z,23.32
2023-07-23T17:06:43.957Z,23.37
2023-07-23T17:11:48.238Z,23.44
2023-07-23T17:16:51.406Z,23.42
2023-07-23T17:21:56.132Z,23.33
2023-07-23T17:26:59.290Z,23.21
2023-07-23T17:32:02.779Z,23.11
2023-07-23T17:37:08.033Z,23.08
2023-07-23T17:42:11.104Z,22.97
2023-07-23T17:47:14.184Z,22.83
2023-07-23T17:52:20.852Z,22.80
2023-07-23T17:57:24.674Z,22.79
2023-07-23T18:02:28.124Z,22.70
2023-07-23T18:07:32.572Z,22.63
2023-07-23T18:12:35.738Z,22.46
2023-07-23T18:17:38.800Z,22.37
2023-07-23T18:22:43.314Z,22.16
2023-07-23T18:27:46.497Z,22.17
2023-07-23T18:32:49.651Z,22.07
2023-07-23T18:37:54.759Z,22.01
2023-07-23T18:42:57.865Z,21.94
2023-07-23T18:48:00.987Z,21.83
2023-07-23T18:53:05.707Z,21.70
2023-07-23T18:58:09.789Z,21.62
2023-07-23T19:03:13.434Z,21.46
2023-07-23T19:08:18.269Z,21.42
2023-07-23T19:13:21.499Z,21.33
2023-07-23T19:18:24.923Z,21.20
2023-07-23T19:23:29.497Z,21.13
2023-07-23T19:28:32.682Z,21.04
2023-07-23T19:33:36.201Z,20.99
2023-07-23T19:38:40.834Z,20.90
2023-07-23T19:43:44.079Z,20.80
2023-07-23T19:48:47.136Z,20.70
2023-07-23T19:53:51.703Z,20.63
2023-07-23T19:58:54.939Z,20.53
2023-07-23T20:03:58.112Z,20.38
2023-07-23T20:09:06.918Z,20.35
2023-07-23T20:14:10.037Z,20.16
2023-07-23T20:19:13.252Z,20.17
2023-07-23T20:24:18.033Z,20.07
2023-07-23T20:29:22.801Z,20.02
2023-07-23T20:34:26.914Z,19.85
2023-07-23T20:39:32.343Z,19.86
2023-07-23T20:44:39.157Z,19.83
2023-07-23T20:49:44.112Z,19.79
2023-07-23T20:54:48.571Z,19.68
2023-07-23T20:59:51.821Z,19.62
2023-07-23T21:04:54.982Z,19.57
2023-07-23T21:09:59.378Z,19.58
2023-07-23T21:15:02.628Z,19.52
2023-07-23T21:20:06.385Z,19.51
2023-07-23T21:25:10.987Z,19.49
2023-07-23T21:30:14.220Z,19.45
2023-07-23T21:35:20.496Z,19.35
2023-07-23T21:40:25.133Z,19.38
2023-07-23T21:45:28.476Z,19.41
2023-07-23T21:50:31.611Z,19.40
2023-07-23T21:55:37.343Z,19.41
2023-07-23T22:00:40.848Z,19.31
2023-07-23T22:05:43.930Z,19.18
2023-07-23T22:10:48.453Z,19.15
2023-07-23T22:15:53.558Z,19.12
2023-07-23T22:20:56.573Z,19.10
2023-07-23T22:26:01.400Z,19.07
2023-07-23T22:31:04.426Z,19.09
2023-07-23T22:36:07.692Z,19.15
2023-07-23T22:41:12.488Z,19.14
2023-07-23T22:46:15.928Z,19.10
2023-07-23T22:51:19.110Z,19.09
2023-07-23T22:56:23.507Z,19.07
2023-07-23T23:01:26.856Z,19.13
2023-07-23T23:06:32.015Z,19.14
2023-07-23T23:11:37.263Z,19.17
2023-07-23T23:16:40.590Z,19.21
2023-07-23T23:21:43.682Z,19.16
2023-07-23T23:26:48.126Z,19.21
2023-07-23T23:31:51.288Z,19.17
2023-07-23T23:36:55.894Z,19.15
2023-07-23T23:42:00.443Z,19.12
2023-07-23T23:47:03.415Z,19.04
2023-07-23T23:52:09.183Z,18.98
2023-07-23T23:57:13.662Z,19.00
